sensor_id;sensor_type;location;lat;lon;timestamp;pressure;altitude;pressure_sealevel;temperature;humidity
14818;BME280;7500;57.698;11.986;2022-10-18T00:00:00;101919.50;;;15.80;100.00
14818;BME280;7500;57.698;11.986;2022-10-18T00:02:27;101920.19;;;15.83;100.00
14818;BME280;7500;57.698;11.986;2022-10-18T00:04:54;101931.53;;;15.86;100.00
14818;BME280;7500;57.698;11.986;2022-10-18T00:07:20;101926.19;;;15.86;100.00
14818;BME280;7500;57.698;11.986;2022-10-18T00:09:49;101932.75;;;15.96;100.00
14818;BME280;7500;57.698;11.986;2022-10-18T00:12:15;101928.09;;;16.00;100.00
14818;BME280;7500;57.698;11.986;2022-10-18T00:14:42;101941.53;;;15.98;100.00
14818;BME280;7500;57.698;11.986;2022-10-18T00:17:09;101937.97;;;15.98;100.00
14818;BME280;7500;57.698;11.986;2022-10-18T00:19:36;101944.88;;;16.02;100.00
14818;BME280;7500;57.698;11.986;2022-10-18T00:22:03;101951.22;;;15.99;100.00
14818;BME280;7500;57.698;11.986;2022-10-18T00:24:30;101950.19;;;16.02;100.00
14818;BME280;7500;57.698;11.986;2022-10-18T00:26:58;101946.53;;;16.04;100.00
14818;BME280;7500;57.698;11.986;2022-10-18T00:29:25;101948.06;;;15.93;100.00
14818;BME280;7500;57.698;11.986;2022-10-18T00:31:51;101954.59;;;16.03;100.00
14818;BME280;7500;57.698;11.986;2022-10-18T00:34:18;101954.59;;;16.03;100.00
14818;BME280;7500;57.698;11.986;2022-10-18T00:36:45;101950.19;;;16.02;100.00
14818;BME280;7500;57.698;11.986;2022-10-18T00:39:18;101921.91;;;15.84;100.00
14818;BME280;7500;57.698;11.986;2022-10-18T00:41:46;101928.97;;;15.85;100.00
14818;BME280;7500;57.698;11.986;2022-10-18T00:47:18;101921.59;;;15.90;100.00
14818;BME280;7500;57.698;11.986;2022-10-18T00:49:47;101948.91;;;16.09;100.00
14818;BME280;7500;57.698;11.986;2022-10-18T00:52:17;101949.03;;;16.07;100.00
14818;BME280;7500;57.698;11.986;2022-10-18T00:54:46;101954.03;;;16.13;100.00
14818;BME280;7500;57.698;11.986;2022-10-18T00:57:14;101925.81;;;15.94;100.00
14818;BME280;7500;57.698;11.986;2022-10-18T00:59:41;101941.34;;;16.01;100.00
14818;BME280;7500;57.698;11.986;2022-10-18T01:02:09;101944.03;;;16.01;100.00
14818;BME280;7500;57.698;11.986;2022-10-18T01:04:40;101948.25;;;16.05;100.00
14818;BME280;7500;57.698;11.986;2022-10-18T01:07:17;101932.50;;;16.01;100.00
14818;BME280;7500;57.698;11.986;2022-10-18T01:09:54;101941.63;;;15.97;100.00
14818;BME280;7500;57.698;11.986;2022-10-18T01:12:30;101931.16;;;15.77;100.00
14818;BME280;7500;57.698;11.986;2022-10-18T01:15:04;101954.56;;;15.87;100.00
14818;BME280;7500;57.698;11.986;2022-10-18T01:17:39;101950.78;;;15.91;100.00
14818;BME280;7500;57.698;11.986;2022-10-18T01:20:28;101943.13;;;15.85;100.00
14818;BME280;7500;57.698;11.986;2022-10-18T01:23:05;101940.28;;;15.88;100.00
14818;BME280;7500;57.698;11.986;2022-10-18T01:25:39;101934.19;;;15.86;100.00
14818;BME280;7500;57.698;11.986;2022-10-18T01:28:19;101946.16;;;15.95;100.00
14818;BME280;7500;57.698;11.986;2022-10-18T01:30:53;101925.97;;;15.91;100.00
14818;BME280;7500;57.698;11.986;2022-10-18T01:33:27;101923.31;;;15.91;100.00
14818;BME280;7500;57.698;11.986;2022-10-18T01:36:00;101919.50;;;15.80;100.00
14818;BME280;7500;57.698;11.986;2022-10-18T01:38:29;101915.97;;;15.79;100.00
14818;BME280;7500;57.698;11.986;2022-10-18T01:40:57;101933.06;;;15.75;100.00
14818;BME280;7500;57.698;11.986;2022-10-18T01:43:27;101925.84;;;15.77;100.00
14818;BME280;7500;57.698;11.986;2022-10-18T01:45:57;101927.25;;;15.84;100.00
14818;BME280;7500;57.698;11.986;2022-10-18T01:48:26;101913.31;;;15.79;100.00
14818;BME280;7500;57.698;11.986;2022-10-18T01:50:53;101915.03;;;15.80;100.00
14818;BME280;7500;57.698;11.986;2022-10-18T01:53:25;101917.94;;;15.76;100.00
14818;BME280;7500;57.698;11.986;2022-10-18T01:55:59;101906.94;;;15.82;100.00
14818;BME280;7500;57.698;11.986;2022-10-18T01:58:32;101911.41;;;15.81;100.00
14818;BME280;7500;57.698;11.986;2022-10-18T02:01:07;101924.63;;;15.82;100.00
14818;BME280;7500;57.698;11.986;2022-10-18T02:03:36;101913.63;;;15.73;100.00
14818;BME280;7500;57.698;11.986;2022-10-18T02:06:10;101919.56;;;15.78;100.00
14818;BME280;7500;57.698;11.986;2022-10-18T02:08:45;101919.75;;;15.75;100.00
14818;BME280;7500;57.698;11.986;2022-10-18T02:11:16;101908.31;;;15.73;100.00
14818;BME280;7500;57.698;11.986;2022-10-18T02:13:46;101904.81;;;15.73;100.00
14818;BME280;7500;57.698;11.986;2022-10-18T02:16:18;101910.97;;;15.73;100.00
14818;BME280;7500;57.698;11.986;2022-10-18T02:18:48;101901.09;;;15.75;100.00
14818;BME280;7500;57.698;11.986;2022-10-18T02:21:17;101888.28;;;15.66;100.00
14818;BME280;7500;57.698;11.986;2022-10-18T02:23:45;101914.94;;;15.82;100.00
14818;BME280;7500;57.698;11.986;2022-10-18T02:26:13;101919.91;;;15.72;100.00
14818;BME280;7500;57.698;11.986;2022-10-18T02:28:41;101914.19;;;15.80;100.00
14818;BME280;7500;57.698;11.986;2022-10-18T02:31:14;101915.19;;;15.77;100.00
14818;BME280;7500;57.698;11.986;2022-10-18T02:33:50;101898.38;;;15.77;100.00
14818;BME280;7500;57.698;11.986;2022-10-18T02:36:22;101912.47;;;15.79;100.00
14818;BME280;7500;57.698;11.986;2022-10-18T02:38:53;101906.59;;;15.72;100.00
14818;BME280;7500;57.698;11.986;2022-10-18T02:41:23;101906.19;;;15.80;100.00
14818;BME280;7500;57.698;11.986;2022-10-18T02:43:50;101905.59;;;15.90;100.00
14818;BME280;7500;57.698;11.986;2022-10-18T02:46:17;101894.34;;;15.85;100.00
14818;BME280;7500;57.698;11.986;2022-10-18T02:48:45;101908.16;;;15.91;100.00
14818;BME280;7500;57.698;11.986;2022-10-18T02:51:12;101910.94;;;15.90;100.00
14818;BME280;7500;57.698;11.986;2022-10-18T02:53:39;101897.16;;;15.82;100.00
14818;BME280;7500;57.698;11.986;2022-10-18T02:56:06;101904.03;;;15.86;100.00
14818;BME280;7500;57.698;11.986;2022-10-18T02:58:33;101906.78;;;15.84;100.00
14818;BME280;7500;57.698;11.986;2022-10-18T03:01:00;101900.78;;;15.81;100.00
14818;BME280;7500;57.698;11.986;2022-10-18T03:03:27;101909.38;;;15.86;100.00
14818;BME280;7500;57.698;11.986;2022-10-18T03:05:55;101913.91;;;15.84;100.00
14818;BME280;7500;57.698;11.986;2022-10-18T03:08:22;101911.25;;;15.84;100.00
14818;BME280;7500;57.698;11.986;2022-10-18T03:10:48;101898.38;;;15.77;100.00
14818;BME280;7500;57.698;11.986;2022-10-18T03:13:15;101897.16;;;15.82;100.00
14818;BME280;7500;57.698;11.986;2022-10-18T03:15:42;101907.81;;;15.82;100.00
14818;BME280;7500;57.698;11.986;2022-10-18T03:18:09;101902.81;;;15.76;100.00
14818;BME280;7500;57.698;11.986;2022-10-18T03:20:36;101896.47;;;15.79;100.00
14818;BME280;7500;57.698;11.986;2022-10-18T03:23:04;101903.84;;;15.74;100.00
14818;BME280;7500;57.698;11.986;2022-10-18T03:25:31;101896.66;;;15.76;100.00
14818;BME280;7500;57.698;11.986;2022-10-18T03:27:58;101899.06;;;15.80;100.00
14818;BME280;7500;57.698;11.986;2022-10-18T03:30:25;101904.53;;;15.77;100.00
14818;BME280;7500;57.698;11.986;2022-10-18T03:32:52;101895.59;;;15.78;100.00
14818;BME280;7500;57.698;11.986;2022-10-18T03:35:19;101903.59;;;15.78;100.00
14818;BME280;7500;57.698;11.986;2022-10-18T03:37:46;101912.38;;;15.80;100.00
14818;BME280;7500;57.698;11.986;2022-10-18T03:40:15;101897.50;;;15.76;100.00
14818;BME280;7500;57.698;11.986;2022-10-18T03:42:42;101892.25;;;15.75;100.00
14818;BME280;7500;57.698;11.986;2022-10-18T03:45:09;101902.56;;;15.81;100.00
14818;BME280;7500;57.698;11.986;2022-10-18T03:47:36;101900.94;;;15.78;100.00
14818;BME280;7500;57.698;11.986;2022-10-18T03:50:03;101905.22;;;15.81;100.00
14818;BME280;7500;57.698;11.986;2022-10-18T03:52:30;101901.88;;;15.77;100.00
14818;BME280;7500;57.698;11.986;2022-10-18T03:54:57;101908.44;;;15.87;100.00
14818;BME280;7500;57.698;11.986;2022-10-18T03:57:25;101916.00;;;15.94;100.00
14818;BME280;7500;57.698;11.986;2022-10-18T03:59:52;101896.34;;;15.97;100.00
14818;BME280;7500;57.698;11.986;2022-10-18T04:02:19;101875.69;;;15.85;100.00
14818;BME280;7500;57.698;11.986;2022-10-18T04:04:46;101885.06;;;15.92;100.00
14818;BME280;7500;57.698;11.986;2022-10-18T04:07:12;101883.97;;;15.96;100.00
14818;BME280;7500;57.698;11.986;2022-10-18T04:09:39;101877.84;;;15.94;100.00
14818;BME280;7500;57.698;11.986;2022-10-18T04:12:06;101877.94;;;15.92;100.00
14818;BME280;7500;57.698;11.986;2022-10-18T04:14:34;101875.69;;;16.00;100.00
14818;BME280;7500;57.698;11.986;2022-10-18T04:17:01;101882.75;;;16.01;100.00
14818;BME280;7500;57.698;11.986;2022-10-18T04:19:29;101881.97;;;15.99;100.00
14818;BME280;7500;57.698;11.986;2022-10-18T04:21:56;101884.13;;;15.93;100.00
14818;BME280;7500;57.698;11.986;2022-10-18T04:24:23;101883.25;;;15.92;100.00
14818;BME280;7500;57.698;11.986;2022-10-18T04:26:49;101875.53;;;15.88;100.00
14818;BME280;7500;57.698;11.986;2022-10-18T04:29:16;101877.41;;;15.86;100.00
14818;BME280;7500;57.698;11.986;2022-10-18T04:31:44;101877.16;;;15.90;100.00
14818;BME280;7500;57.698;11.986;2022-10-18T04:34:11;101889.19;;;15.82;100.00
14818;BME280;7500;57.698;11.986;2022-10-18T04:36:38;101870.59;;;15.81;100.00
14818;BME280;7500;57.698;11.986;2022-10-18T04:39:05;101874.47;;;15.90;100.00
14818;BME280;7500;57.698;11.986;2022-10-18T04:41:32;101872.94;;;15.86;100.00
14818;BME280;7500;57.698;11.986;2022-10-18T04:43:58;101873.03;;;15.85;100.00
14818;BME280;7500;57.698;11.986;2022-10-18T04:46:25;101865.38;;;15.79;100.00
14818;BME280;7500;57.698;11.986;2022-10-18T04:48:53;101866.41;;;15.77;100.00
14818;BME280;7500;57.698;11.986;2022-10-18T04:51:20;101892.94;;;15.78;100.00
14818;BME280;7500;57.698;11.986;2022-10-18T04:53:47;101877.13;;;15.75;100.00
14818;BME280;7500;57.698;11.986;2022-10-18T04:56:14;101880.41;;;15.80;100.00
14818;BME280;7500;57.698;11.986;2022-10-18T04:58:41;101880.41;;;15.80;100.00
14818;BME280;7500;57.698;11.986;2022-10-18T05:01:07;101876.63;;;15.69;100.00
14818;BME280;7500;57.698;11.986;2022-10-18T05:03:34;101886.50;;;15.82;100.00
14818;BME280;7500;57.698;11.986;2022-10-18T05:06:03;101888.28;;;15.82;100.00
14818;BME280;7500;57.698;11.986;2022-10-18T05:08:31;101891.16;;;15.79;100.00
14818;BME280;7500;57.698;11.986;2022-10-18T05:10:59;101887.72;;;15.77;100.00
14818;BME280;7500;57.698;11.986;2022-10-18T05:13:26;101884.97;;;15.78;100.00
14818;BME280;7500;57.698;11.986;2022-10-18T05:15:53;101885.63;;;15.82;100.00
14818;BME280;7500;57.698;11.986;2022-10-18T05:18:20;101878.97;;;15.90;100.00
14818;BME280;7500;57.698;11.986;2022-10-18T05:20:47;101883.25;;;15.92;100.00
14818;BME280;7500;57.698;11.986;2022-10-18T05:23:15;101883.34;;;15.91;100.00
14818;BME280;7500;57.698;11.986;2022-10-18T05:25:42;101878.81;;;15.93;100.00
14818;BME280;7500;57.698;11.986;2022-10-18T05:28:09;101876.53;;;15.85;100.00
14818;BME280;7500;57.698;11.986;2022-10-18T05:30:36;101876.34;;;15.73;100.00
14818;BME280;7500;57.698;11.986;2022-10-18T05:33:03;101879.78;;;15.75;100.00
14818;BME280;7500;57.698;11.986;2022-10-18T05:35:30;101881.69;;;15.73;100.00
14818;BME280;7500;57.698;11.986;2022-10-18T05:37:57;101886.94;;;15.75;100.00
14818;BME280;7500;57.698;11.986;2022-10-18T05:40:25;101878.06;;;15.74;100.00
14818;BME280;7500;57.698;11.986;2022-10-18T05:42:52;101877.63;;;15.66;100.00
14818;BME280;7500;57.698;11.986;2022-10-18T05:45:19;101883.34;;;15.76;100.00
14818;BME280;7500;57.698;11.986;2022-10-18T05:47:46;101882.38;;;15.77;100.00
14818;BME280;7500;57.698;11.986;2022-10-18T05:50:13;101869.84;;;15.79;100.00
14818;BME280;7500;57.698;11.986;2022-10-18T05:52:40;101880.91;;;15.71;100.00
14818;BME280;7500;57.698;11.986;2022-10-18T05:55:07;101881.63;;;15.75;100.00
14818;BME280;7500;57.698;11.986;2022-10-18T05:57:35;101881.44;;;15.78;100.00
14818;BME280;7500;57.698;11.986;2022-10-18T06:00:02;101876.13;;;15.78;100.00
14818;BME280;7500;57.698;11.986;2022-10-18T06:02:30;101873.34;;;15.79;100.00
14818;BME280;7500;57.698;11.986;2022-10-18T06:04:56;101874.41;;;15.77;100.00
14818;BME280;7500;57.698;11.986;2022-10-18T06:07:23;101881.50;;;15.76;100.00
14818;BME280;7500;57.698;11.986;2022-10-18T06:09:50;101879.97;;;15.72;100.00
14818;BME280;7500;57.698;11.986;2022-10-18T06:12:17;101879.19;;;15.70;100.00
14818;BME280;7500;57.698;11.986;2022-10-18T06:14:45;101874.03;;;15.67;100.00
14818;BME280;7500;57.698;11.986;2022-10-18T06:17:13;101890.59;;;15.72;100.00
14818;BME280;7500;57.698;11.986;2022-10-18T06:19:40;101883.81;;;15.67;100.00
14818;BME280;7500;57.698;11.986;2022-10-18T06:22:08;101880.13;;;15.69;100.00
14818;BME280;7500;57.698;11.986;2022-10-18T06:24:35;101881.50;;;15.76;100.00
14818;BME280;7500;57.698;11.986;2022-10-18T06:27:02;101894.06;;;15.74;100.00
14818;BME280;7500;57.698;11.986;2022-10-18T06:29:33;101893.38;;;15.71;100.00
14818;BME280;7500;57.698;11.986;2022-10-18T06:32:02;101893.09;;;15.75;100.00
14818;BME280;7500;57.698;11.986;2022-10-18T06:34:28;101865.00;;;15.54;100.00
14818;BME280;7500;57.698;11.986;2022-10-18T06:36:55;101889.22;;;15.65;100.00
14818;BME280;7500;57.698;11.986;2022-10-18T06:39:23;101895.94;;;15.72;100.00
14818;BME280;7500;57.698;11.986;2022-10-18T06:41:49;101897.59;;;15.75;100.00
14818;BME280;7500;57.698;11.986;2022-10-18T06:44:16;101900.47;;;15.70;100.00
14818;BME280;7500;57.698;11.986;2022-10-18T06:46:44;101903.31;;;15.67;100.00
14818;BME280;7500;57.698;11.986;2022-10-18T06:49:14;101898.06;;;15.66;100.00
14818;BME280;7500;57.698;11.986;2022-10-18T06:51:41;101908.22;;;15.59;100.00
14818;BME280;7500;57.698;11.986;2022-10-18T06:54:09;101908.03;;;15.62;100.00
14818;BME280;7500;57.698;11.986;2022-10-18T06:56:36;101907.22;;;15.45;100.00
14818;BME280;7500;57.698;11.986;2022-10-18T06:59:03;101902.78;;;15.61;100.00
14818;BME280;7500;57.698;11.986;2022-10-18T07:01:30;101908.63;;;15.67;100.00
14818;BME280;7500;57.698;11.986;2022-10-18T07:03:57;101895.16;;;15.70;100.00
14818;BME280;7500;57.698;11.986;2022-10-18T07:06:25;101902.13;;;15.73;100.00
14818;BME280;7500;57.698;11.986;2022-10-18T07:08:52;101902.75;;;15.78;100.00
14818;BME280;7500;57.698;11.986;2022-10-18T07:11:22;101905.41;;;15.78;100.00
14818;BME280;7500;57.698;11.986;2022-10-18T07:13:49;101916.47;;;15.70;100.00
14818;BME280;7500;57.698;11.986;2022-10-18T07:16:17;101911.66;;;15.61;100.00
14818;BME280;7500;57.698;11.986;2022-10-18T07:18:45;101906.38;;;15.60;100.00
14818;BME280;7500;57.698;11.986;2022-10-18T07:21:15;101905.19;;;15.65;100.00
14818;BME280;7500;57.698;11.986;2022-10-18T07:23:46;101912.06;;;15.69;100.00
14818;BME280;7500;57.698;11.986;2022-10-18T07:26:15;101892.63;;;15.52;100.00
14818;BME280;7500;57.698;11.986;2022-10-18T07:28:43;101902.78;;;15.61;100.00
14818;BME280;7500;57.698;11.986;2022-10-18T07:31:11;101911.28;;;15.67;100.00
14818;BME280;7500;57.698;11.986;2022-10-18T07:33:39;101904.97;;;15.70;100.00
14818;BME280;7500;57.698;11.986;2022-10-18T07:36:09;101899.38;;;15.74;100.00
14818;BME280;7500;57.698;11.986;2022-10-18T07:38:36;101909.88;;;15.77;100.00
14818;BME280;7500;57.698;11.986;2022-10-18T07:41:05;101911.75;;;15.75;100.00
14818;BME280;7500;57.698;11.986;2022-10-18T07:43:32;101915.69;;;15.68;100.00
14818;BME280;7500;57.698;11.986;2022-10-18T07:46:01;101913.38;;;15.62;100.00
14818;BME280;7500;57.698;11.986;2022-10-18T07:48:29;101926.69;;;15.62;100.00
14818;BME280;7500;57.698;11.986;2022-10-18T07:50:57;101919.44;;;15.64;100.00
14818;BME280;7500;57.698;11.986;2022-10-18T07:53:25;101904.50;;;15.62;100.00
14818;BME280;7500;57.698;11.986;2022-10-18T07:55:56;101911.41;;;15.66;100.00
14818;BME280;7500;57.698;11.986;2022-10-18T07:58:25;101911.22;;;15.69;100.00
14818;BME280;7500;57.698;11.986;2022-10-18T08:00:52;101911.41;;;15.66;100.00
14818;BME280;7500;57.698;11.986;2022-10-18T08:03:19;101911.72;;;15.60;100.00
14818;BME280;7500;57.698;11.986;2022-10-18T08:05:50;101914.13;;;15.64;100.00
14818;BME280;7500;57.698;11.986;2022-10-18T08:08:18;101905.28;;;15.64;100.00
14818;BME280;7500;57.698;11.986;2022-10-18T08:10:45;101902.38;;;15.68;100.00
14818;BME280;7500;57.698;11.986;2022-10-18T08:13:12;101904.53;;;15.77;100.00
14818;BME280;7500;57.698;11.986;2022-10-18T08:15:40;101913.97;;;15.82;100.00
14818;BME280;7500;57.698;11.986;2022-10-18T08:18:07;101902.31;;;15.85;100.00
14818;BME280;7500;57.698;11.986;2022-10-18T08:20:34;101908.66;;;15.82;100.00
14818;BME280;7500;57.698;11.986;2022-10-18T08:23:01;101890.44;;;15.75;100.00
14818;BME280;7500;57.698;11.986;2022-10-18T08:25:29;101908.59;;;15.84;100.00
14818;BME280;7500;57.698;11.986;2022-10-18T08:27:56;101917.38;;;15.86;100.00
14818;BME280;7500;57.698;11.986;2022-10-18T08:30:23;101908.16;;;15.76;100.00
14818;BME280;7500;57.698;11.986;2022-10-18T08:32:51;101921.09;;;15.67;100.00
14818;BME280;7500;57.698;11.986;2022-10-18T08:35:18;101913.22;;;15.48;100.00
14818;BME280;7500;57.698;11.986;2022-10-18T08:37:45;101918.25;;;15.37;100.00
14818;BME280;7500;57.698;11.986;2022-10-18T08:40:13;101920.53;;;15.28;100.00
14818;BME280;7500;57.698;11.986;2022-10-18T08:42:59;101924.25;;;15.24;100.00
14818;BME280;7500;57.698;11.986;2022-10-18T08:45:27;101919.81;;;15.24;100.00
14818;BME280;7500;57.698;11.986;2022-10-18T08:47:56;101916.22;;;15.25;100.00
14818;BME280;7500;57.698;11.986;2022-10-18T08:50:27;101915.16;;;15.29;100.00
14818;BME280;7500;57.698;11.986;2022-10-18T08:53:03;101911.63;;;15.29;100.00
14818;BME280;7500;57.698;11.986;2022-10-18T08:55:37;101903.91;;;15.23;100.00
14818;BME280;7500;57.698;11.986;2022-10-18T08:58:16;101910.09;;;15.40;100.00
14818;BME280;7500;57.698;11.986;2022-10-18T09:00:49;101913.66;;;15.41;100.00
14818;BME280;7500;57.698;11.986;2022-10-18T09:03:29;101906.97;;;15.32;100.00
14818;BME280;7500;57.698;11.986;2022-10-18T09:06:06;101913.56;;;15.42;100.00
14818;BME280;7500;57.698;11.986;2022-10-18T09:08:48;101908.06;;;15.45;100.00
14818;BME280;7500;57.698;11.986;2022-10-18T09:11:29;101901.16;;;15.58;100.00
14818;BME280;7500;57.698;11.986;2022-10-18T09:14:25;101887.13;;;15.55;100.00
14818;BME280;7500;57.698;11.986;2022-10-18T09:17:01;101905.53;;;15.59;100.00
14818;BME280;7500;57.698;11.986;2022-10-18T09:19:45;101923.41;;;15.57;100.00
14818;BME280;7500;57.698;11.986;2022-10-18T09:22:23;101914.19;;;15.47;100.00
14818;BME280;7500;57.698;11.986;2022-10-18T09:25:01;101919.75;;;15.43;100.00
14818;BME280;7500;57.698;11.986;2022-10-18T09:27:36;101920.28;;;15.49;100.00
14818;BME280;7500;57.698;11.986;2022-10-18T09:30:12;101923.09;;;15.63;100.00
14818;BME280;7500;57.698;11.986;2022-10-18T09:32:45;101922.56;;;15.72;100.00
14818;BME280;7500;57.698;11.986;2022-10-18T09:35:18;101912.06;;;15.69;100.00
14818;BME280;7500;57.698;11.986;2022-10-18T09:37:46;101919.22;;;15.69;100.00
14818;BME280;7500;57.698;11.986;2022-10-18T09:40:16;101918.00;;;15.74;100.00
14818;BME280;7500;57.698;11.986;2022-10-18T09:42:52;101916.91;;;15.78;100.00
14818;BME280;7500;57.698;11.986;2022-10-18T09:45:25;101913.16;;;15.82;100.00
14818;BME280;7500;57.698;11.986;2022-10-18T09:48:01;101905.47;;;15.76;100.00
14818;BME280;7500;57.698;11.986;2022-10-18T09:50:34;101903.91;;;15.72;100.00
14818;BME280;7500;57.698;11.986;2022-10-18T09:53:12;101903.91;;;15.72;100.00
14818;BME280;7500;57.698;11.986;2022-10-18T09:55:50;101899.22;;;15.77;100.00
14818;BME280;7500;57.698;11.986;2022-10-18T09:58:21;101892.78;;;15.81;100.00
14818;BME280;7500;57.698;11.986;2022-10-18T10:00:50;101900.00;;;15.94;100.00
14818;BME280;7500;57.698;11.986;2022-10-18T10:03:18;101915.16;;;15.94;100.00
14818;BME280;7500;57.698;11.986;2022-10-18T10:06:00;101910.81;;;15.91;100.00
14818;BME280;7500;57.698;11.986;2022-10-18T10:08:32;101908.50;;;15.85;100.00
14818;BME280;7500;57.698;11.986;2022-10-18T10:10:59;101921.91;;;15.84;100.00
14818;BME280;7500;57.698;11.986;2022-10-18T10:13:26;101906.25;;;15.78;100.00
14818;BME280;7500;57.698;11.986;2022-10-18T10:15:55;101900.88;;;15.80;100.00
14818;BME280;7500;57.698;11.986;2022-10-18T10:18:24;101906.78;;;15.84;100.00
14818;BME280;7500;57.698;11.986;2022-10-18T10:20:55;101912.97;;;15.85;100.00
14818;BME280;7500;57.698;11.986;2022-10-18T10:23:25;101912.19;;;15.83;100.00
14818;BME280;7500;57.698;11.986;2022-10-18T10:25:53;101905.06;;;15.83;100.00
14818;BME280;7500;57.698;11.986;2022-10-18T10:28:23;101896.84;;;15.88;100.00
14818;BME280;7500;57.698;11.986;2022-10-18T10:30:51;101906.28;;;15.93;100.00
14818;BME280;7500;57.698;11.986;2022-10-18T10:33:31;101900.28;;;15.90;100.00
14818;BME280;7500;57.698;11.986;2022-10-18T10:36:01;101914.38;;;15.92;100.00
14818;BME280;7500;57.698;11.986;2022-10-18T10:38:29;101909.56;;;15.98;100.00
14818;BME280;7500;57.698;11.986;2022-10-18T10:40:57;101910.59;;;15.96;100.00
14818;BME280;7500;57.698;11.986;2022-10-18T10:43:26;101915.81;;;15.97;100.00
14818;BME280;7500;57.698;11.986;2022-10-18T10:45:58;101922.78;;;16.00;100.00
14818;BME280;7500;57.698;11.986;2022-10-18T10:48:27;101915.72;;;15.99;100.00
14818;BME280;7500;57.698;11.986;2022-10-18T10:51:04;101921.75;;;16.02;100.00
14818;BME280;7500;57.698;11.986;2022-10-18T10:53:38;101913.69;;;16.04;100.00
14818;BME280;7500;57.698;11.986;2022-10-18T10:56:14;101909.28;;;16.03;100.00
14818;BME280;7500;57.698;11.986;2022-10-18T10:58:42;101897.78;;;16.02;100.00
14818;BME280;7500;57.698;11.986;2022-10-18T11:01:33;101917.38;;;16.01;100.00
14818;BME280;7500;57.698;11.986;2022-10-18T11:04:02;101915.31;;;16.06;100.00
14818;BME280;7500;57.698;11.986;2022-10-18T11:06:54;101906.41;;;16.07;100.00
14818;BME280;7500;57.698;11.986;2022-10-18T11:09:50;101897.69;;;16.04;100.00
14818;BME280;7500;57.698;11.986;2022-10-18T11:12:26;101908.00;;;16.10;100.00
14818;BME280;7500;57.698;11.986;2022-10-18T11:15:03;101909.84;;;16.09;100.00
14818;BME280;7500;57.698;11.986;2022-10-18T11:17:40;101905.44;;;16.08;100.00
14818;BME280;7500;57.698;11.986;2022-10-18T11:20:13;101902.00;;;16.06;100.00
14818;BME280;7500;57.698;11.986;2022-10-18T11:22:48;101901.22;;;16.04;100.00
14818;BME280;7500;57.698;11.986;2022-10-18T11:25:21;101907.34;;;16.06;100.00
14818;BME280;7500;57.698;11.986;2022-10-18T11:27:54;101901.38;;;15.86;100.00
14818;BME280;7500;57.698;11.986;2022-10-18T11:30:36;101906.75;;;15.69;100.00
14818;BME280;7500;57.698;11.986;2022-10-18T11:33:19;101904.34;;;15.65;100.00
14818;BME280;7500;57.698;11.986;2022-10-18T11:35:50;101912.78;;;15.73;100.00
14818;BME280;7500;57.698;11.986;2022-10-18T11:38:30;101909.41;;;15.69;100.00
14818;BME280;7500;57.698;11.986;2022-10-18T11:41:10;101905.81;;;15.70;100.00
14818;BME280;7500;57.698;11.986;2022-10-18T11:43:44;101907.81;;;15.82;100.00
14818;BME280;7500;57.698;11.986;2022-10-18T11:46:23;101866.63;;;18.99;100.00
14818;BME280;7500;57.698;11.986;2022-10-18T11:49:05;101876.44;;;19.49;100.00
14818;BME280;7500;57.698;11.986;2022-10-18T11:51:43;101882.78;;;20.22;100.00
14818;BME280;7500;57.698;11.986;2022-10-18T11:54:27;101878.72;;;20.16;100.00
14818;BME280;7500;57.698;11.986;2022-10-18T11:57:04;101874.22;;;19.92;100.00
14818;BME280;7500;57.698;11.986;2022-10-18T11:59:37;101880.13;;;20.09;100.00
14818;BME280;7500;57.698;11.986;2022-10-18T12:02:23;101886.63;;;18.14;100.00
14818;BME280;7500;57.698;11.986;2022-10-18T12:04:59;101872.41;;;19.92;100.00
14818;BME280;7500;57.698;11.986;2022-10-18T12:07:30;101881.13;;;17.75;100.00
14818;BME280;7500;57.698;11.986;2022-10-18T12:10:00;101876.00;;;20.52;100.00
14818;BME280;7500;57.698;11.986;2022-10-18T12:12:30;101884.03;;;19.68;100.00
14818;BME280;7500;57.698;11.986;2022-10-18T12:15:00;101883.22;;;16.99;100.00
14818;BME280;7500;57.698;11.986;2022-10-18T12:17:33;101886.91;;;16.83;100.00
14818;BME280;7500;57.698;11.986;2022-10-18T12:20:04;101890.25;;;17.29;100.00
14818;BME280;7500;57.698;11.986;2022-10-18T12:22:36;101872.28;;;20.06;100.00
14818;BME280;7500;57.698;11.986;2022-10-18T12:25:09;101875.34;;;20.25;100.00
14818;BME280;7500;57.698;11.986;2022-10-18T12:27:40;101888.69;;;18.23;100.00
14818;BME280;7500;57.698;11.986;2022-10-18T12:30:14;101891.34;;;16.98;100.00
14818;BME280;7500;57.698;11.986;2022-10-18T12:32:46;101895.38;;;16.60;100.00
14818;BME280;7500;57.698;11.986;2022-10-18T12:35:15;101902.00;;;16.53;100.00
14818;BME280;7500;57.698;11.986;2022-10-18T12:37:56;101896.50;;;16.25;100.00
14818;BME280;7500;57.698;11.986;2022-10-18T12:40:33;101901.56;;;16.14;100.00
14818;BME280;7500;57.698;11.986;2022-10-18T12:43:06;101898.91;;;16.14;100.00
14818;BME280;7500;57.698;11.986;2022-10-18T12:45:34;101908.63;;;16.15;100.00
14818;BME280;7500;57.698;11.986;2022-10-18T12:48:29;101904.34;;;15.97;100.00
14818;BME280;7500;57.698;11.986;2022-10-18T12:50:59;101896.22;;;15.98;100.00
14818;BME280;7500;57.698;11.986;2022-10-18T12:53:29;101894.25;;;16.02;100.00
14818;BME280;7500;57.698;11.986;2022-10-18T13:02:26;101891.34;;;16.06;100.00
14818;BME280;7500;57.698;11.986;2022-10-18T13:04:54;101897.34;;;16.10;100.00